sensor_id;sensor_type;location;lat;lon;timestamp;P1;durP1;ratioP1;P2;durP2;ratioP2
26562;SDS011;14217;50.986;5.826;2022-10-31T00:00:03;4.80;;;2.53;;
26562;SDS011;14217;50.986;5.826;2022-10-31T00:05:07;2.22;;;1.70;;
26562;SDS011;14217;50.986;5.826;2022-10-31T00:10:09;3.88;;;1.85;;
26562;SDS011;14217;50.986;5.826;2022-10-31T00:15:11;3.05;;;1.45;;
26562;SDS011;14217;50.986;5.826;2022-10-31T00:20:13;4.13;;;1.83;;
26562;SDS011;14217;50.986;5.826;2022-10-31T00:25:15;3.90;;;2.15;;
26562;SDS011;14217;50.986;5.826;2022-10-31T00:30:16;4.80;;;1.65;;
26562;SDS011;14217;50.986;5.826;2022-10-31T00:35:18;2.30;;;1.77;;
26562;SDS011;14217;50.986;5.826;2022-10-31T00:40:20;4.40;;;2.22;;
26562;SDS011;14217;50.986;5.826;2022-10-31T00:45:22;2.78;;;1.58;;
26562;SDS011;14217;50.986;5.826;2022-10-31T00:50:24;3.95;;;2.20;;
26562;SDS011;14217;50.986;5.826;2022-10-31T00:55:26;2.85;;;1.98;;
26562;SDS011;14217;50.986;5.826;2022-10-31T01:00:27;2.25;;;1.38;;
26562;SDS011;14217;50.986;5.826;2022-10-31T01:05:29;3.05;;;2.72;;
26562;SDS011;14217;50.986;5.826;2022-10-31T01:10:31;5.15;;;2.17;;
26562;SDS011;14217;50.986;5.826;2022-10-31T01:15:33;3.20;;;1.70;;
26562;SDS011;14217;50.986;5.826;2022-10-31T01:20:35;2.15;;;1.67;;
26562;SDS011;14217;50.986;5.826;2022-10-31T01:25:37;2.75;;;1.45;;
26562;SDS011;14217;50.986;5.826;2022-10-31T01:30:39;2.13;;;1.45;;
26562;SDS011;14217;50.986;5.826;2022-10-31T01:35:41;17.75;;;1.55;;
26562;SDS011;14217;50.986;5.826;2022-10-31T01:40:43;3.75;;;1.70;;
26562;SDS011;14217;50.986;5.826;2022-10-31T01:45:52;3.10;;;1.83;;
26562;SDS011;14217;50.986;5.826;2022-10-31T01:50:55;3.88;;;2.35;;
26562;SDS011;14217;50.986;5.826;2022-10-31T01:55:57;2.55;;;1.90;;
26562;SDS011;14217;50.986;5.826;2022-10-31T02:01:01;2.67;;;1.63;;
26562;SDS011;14217;50.986;5.826;2022-10-31T02:06:13;4.65;;;1.98;;
26562;SDS011;14217;50.986;5.826;2022-10-31T02:11:23;4.40;;;1.90;;
26562;SDS011;14217;50.986;5.826;2022-10-31T02:16:25;6.13;;;1.95;;
26562;SDS011;14217;50.986;5.826;2022-10-31T02:21:37;7.07;;;1.77;;
26562;SDS011;14217;50.986;5.826;2022-10-31T02:26:51;6.55;;;1.67;;
26562;SDS011;14217;50.986;5.826;2022-10-31T02:32:00;3.70;;;1.85;;
26562;SDS011;14217;50.986;5.826;2022-10-31T02:42:46;2.95;;;1.95;;
26562;SDS011;14217;50.986;5.826;2022-10-31T02:47:54;3.75;;;1.48;;
26562;SDS011;14217;50.986;5.826;2022-10-31T02:53:01;4.05;;;1.75;;
26562;SDS011;14217;50.986;5.826;2022-10-31T02:58:11;2.50;;;1.27;;
26562;SDS011;14217;50.986;5.826;2022-10-31T03:03:21;2.83;;;2.22;;
26562;SDS011;14217;50.986;5.826;2022-10-31T03:19:41;6.05;;;1.75;;
26562;SDS011;14217;50.986;5.826;2022-10-31T03:24:47;2.47;;;1.48;;
26562;SDS011;14217;50.986;5.826;2022-10-31T03:29:53;3.08;;;1.88;;
26562;SDS011;14217;50.986;5.826;2022-10-31T03:34:58;2.88;;;1.45;;
26562;SDS011;14217;50.986;5.826;2022-10-31T03:40:02;2.60;;;1.98;;
26562;SDS011;14217;50.986;5.826;2022-10-31T03:45:09;3.10;;;1.52;;
26562;SDS011;14217;50.986;5.826;2022-10-31T03:50:16;2.22;;;1.70;;
26562;SDS011;14217;50.986;5.826;2022-10-31T03:55:19;2.10;;;1.73;;
26562;SDS011;14217;50.986;5.826;2022-10-31T04:00:25;4.03;;;2.38;;
26562;SDS011;14217;50.986;5.826;2022-10-31T04:05:27;2.40;;;1.85;;
26562;SDS011;14217;50.986;5.826;2022-10-31T04:10:30;3.45;;;1.67;;
26562;SDS011;14217;50.986;5.826;2022-10-31T04:15:34;3.85;;;1.88;;
26562;SDS011;14217;50.986;5.826;2022-10-31T04:20:39;3.00;;;1.92;;
26562;SDS011;14217;50.986;5.826;2022-10-31T04:25:42;7.40;;;1.98;;
26562;SDS011;14217;50.986;5.826;2022-10-31T04:30:44;2.63;;;1.48;;
26562;SDS011;14217;50.986;5.826;2022-10-31T04:35:47;2.70;;;1.50;;
26562;SDS011;14217;50.986;5.826;2022-10-31T04:40:49;1.98;;;1.40;;
26562;SDS011;14217;50.986;5.826;2022-10-31T04:45:51;5.13;;;1.90;;
26562;SDS011;14217;50.986;5.826;2022-10-31T04:50:57;1.92;;;1.10;;
26562;SDS011;14217;50.986;5.826;2022-10-31T04:56:03;2.85;;;1.88;;
26562;SDS011;14217;50.986;5.826;2022-10-31T05:01:05;4.95;;;1.60;;
26562;SDS011;14217;50.986;5.826;2022-10-31T05:06:07;2.97;;;1.40;;
26562;SDS011;14217;50.986;5.826;2022-10-31T05:11:09;4.28;;;1.80;;
26562;SDS011;14217;50.986;5.826;2022-10-31T05:16:11;6.88;;;1.20;;
26562;SDS011;14217;50.986;5.826;2022-10-31T05:21:13;1.85;;;1.58;;
26562;SDS011;14217;50.986;5.826;2022-10-31T05:26:15;2.03;;;1.30;;
26562;SDS011;14217;50.986;5.826;2022-10-31T05:31:16;2.38;;;1.25;;
26562;SDS011;14217;50.986;5.826;2022-10-31T05:36:18;3.72;;;1.40;;
26562;SDS011;14217;50.986;5.826;2022-10-31T05:41:24;4.05;;;1.90;;
26562;SDS011;14217;50.986;5.826;2022-10-31T05:46:26;3.40;;;1.77;;
26562;SDS011;14217;50.986;5.826;2022-10-31T05:51:29;1.88;;;1.50;;
26562;SDS011;14217;50.986;5.826;2022-10-31T05:56:30;2.80;;;1.40;;
26562;SDS011;14217;50.986;5.826;2022-10-31T06:01:32;3.55;;;1.40;;
26562;SDS011;14217;50.986;5.826;2022-10-31T06:06:34;3.22;;;1.58;;
26562;SDS011;14217;50.986;5.826;2022-10-31T06:11:36;2.10;;;1.75;;
26562;SDS011;14217;50.986;5.826;2022-10-31T06:16:38;1.65;;;1.23;;
26562;SDS011;14217;50.986;5.826;2022-10-31T06:21:40;3.33;;;1.45;;
26562;SDS011;14217;50.986;5.826;2022-10-31T06:26:42;2.60;;;1.88;;
26562;SDS011;14217;50.986;5.826;2022-10-31T06:31:44;2.00;;;1.27;;
26562;SDS011;14217;50.986;5.826;2022-10-31T06:36:46;3.40;;;1.70;;
26562;SDS011;14217;50.986;5.826;2022-10-31T06:41:48;3.58;;;1.75;;
26562;SDS011;14217;50.986;5.826;2022-10-31T06:46:50;1.80;;;1.52;;
26562;SDS011;14217;50.986;5.826;2022-10-31T06:51:52;1.85;;;1.67;;
26562;SDS011;14217;50.986;5.826;2022-10-31T06:56:54;3.80;;;1.35;;
26562;SDS011;14217;50.986;5.826;2022-10-31T07:01:57;2.03;;;1.42;;
26562;SDS011;14217;50.986;5.826;2022-10-31T07:07:00;4.45;;;2.67;;
26562;SDS011;14217;50.986;5.826;2022-10-31T07:12:02;2.67;;;1.38;;
26562;SDS011;14217;50.986;5.826;2022-10-31T07:17:03;2.13;;;1.92;;
26562;SDS011;14217;50.986;5.826;2022-10-31T07:22:05;8.75;;;1.75;;
26562;SDS011;14217;50.986;5.826;2022-10-31T07:27:07;14.38;;;1.83;;
26562;SDS011;14217;50.986;5.826;2022-10-31T07:32:09;2.35;;;1.50;;
26562;SDS011;14217;50.986;5.826;2022-10-31T07:37:11;6.38;;;1.83;;
26562;SDS011;14217;50.986;5.826;2022-10-31T07:42:13;2.88;;;1.70;;
26562;SDS011;14217;50.986;5.826;2022-10-31T07:47:15;3.97;;;1.55;;
26562;SDS011;14217;50.986;5.826;2022-10-31T07:52:17;2.55;;;1.17;;
26562;SDS011;14217;50.986;5.826;2022-10-31T07:57:19;2.25;;;1.67;;
26562;SDS011;14217;50.986;5.826;2022-10-31T08:02:25;10.98;;;4.15;;
26562;SDS011;14217;50.986;5.826;2022-10-31T08:07:27;8.32;;;5.07;;
26562;SDS011;14217;50.986;5.826;2022-10-31T08:12:30;7.22;;;5.05;;
26562;SDS011;14217;50.986;5.826;2022-10-31T08:17:34;12.00;;;5.45;;
26562;SDS011;14217;50.986;5.826;2022-10-31T08:22:37;9.50;;;5.93;;
26562;SDS011;14217;50.986;5.826;2022-10-31T08:27:47;13.30;;;5.15;;
26562;SDS011;14217;50.986;5.826;2022-10-31T08:38:15;12.25;;;5.82;;
26562;SDS011;14217;50.986;5.826;2022-10-31T08:43:17;11.68;;;8.32;;
26562;SDS011;14217;50.986;5.826;2022-10-31T08:48:20;21.30;;;7.75;;
26562;SDS011;14217;50.986;5.826;2022-10-31T08:53:22;11.05;;;8.18;;
26562;SDS011;14217;50.986;5.826;2022-10-31T08:58:25;9.85;;;8.57;;
26562;SDS011;14217;50.986;5.826;2022-10-31T09:03:30;10.50;;;9.50;;
26562;SDS011;14217;50.986;5.826;2022-10-31T09:08:33;10.50;;;9.48;;
26562;SDS011;14217;50.986;5.826;2022-10-31T09:13:35;14.30;;;8.35;;
26562;SDS011;14217;50.986;5.826;2022-10-31T09:18:41;13.85;;;8.38;;
26562;SDS011;14217;50.986;5.826;2022-10-31T09:23:43;9.77;;;8.05;;
26562;SDS011;14217;50.986;5.826;2022-10-31T09:28:45;8.50;;;7.55;;
26562;SDS011;14217;50.986;5.826;2022-10-31T09:33:47;10.32;;;7.43;;
26562;SDS011;14217;50.986;5.826;2022-10-31T09:38:50;8.48;;;6.55;;
26562;SDS011;14217;50.986;5.826;2022-10-31T09:44:15;7.15;;;6.45;;
26562;SDS011;14217;50.986;5.826;2022-10-31T09:49:29;12.35;;;8.38;;
26562;SDS011;14217;50.986;5.826;2022-10-31T09:54:41;12.93;;;6.88;;
26562;SDS011;14217;50.986;5.826;2022-10-31T09:59:47;7.75;;;6.10;;
26562;SDS011;14217;50.986;5.826;2022-10-31T10:04:57;8.07;;;6.93;;
26562;SDS011;14217;50.986;5.826;2022-10-31T10:09:59;9.43;;;7.43;;
26562;SDS011;14217;50.986;5.826;2022-10-31T10:20:31;8.48;;;6.60;;
26562;SDS011;14217;50.986;5.826;2022-10-31T10:25:42;9.50;;;7.38;;
26562;SDS011;14217;50.986;5.826;2022-10-31T10:31:10;12.75;;;7.22;;
26562;SDS011;14217;50.986;5.826;2022-10-31T10:36:20;9.65;;;6.40;;
26562;SDS011;14217;50.986;5.826;2022-10-31T10:41:28;10.32;;;5.80;;
26562;SDS011;14217;50.986;5.826;2022-10-31T10:46:41;7.60;;;5.40;;
26562;SDS011;14217;50.986;5.826;2022-10-31T10:57:58;5.63;;;4.30;;
26562;SDS011;14217;50.986;5.826;2022-10-31T11:03:04;11.05;;;4.65;;
26562;SDS011;14217;50.986;5.826;2022-10-31T11:08:07;6.60;;;4.15;;
26562;SDS011;14217;50.986;5.826;2022-10-31T11:18:19;4.82;;;4.05;;
26562;SDS011;14217;50.986;5.826;2022-10-31T11:23:43;6.25;;;4.13;;
26562;SDS011;14217;50.986;5.826;2022-10-31T11:28:55;3.72;;;3.28;;
26562;SDS011;14217;50.986;5.826;2022-10-31T11:34:01;5.80;;;3.53;;
26562;SDS011;14217;50.986;5.826;2022-10-31T11:39:12;4.03;;;3.42;;
26562;SDS011;14217;50.986;5.826;2022-10-31T11:44:25;9.18;;;3.67;;
26562;SDS011;14217;50.986;5.826;2022-10-31T11:54:44;5.05;;;3.40;;
26562;SDS011;14217;50.986;5.826;2022-10-31T11:59:56;3.38;;;2.92;;
26562;SDS011;14217;50.986;5.826;2022-10-31T12:05:23;4.63;;;3.60;;
26562;SDS011;14217;50.986;5.826;2022-10-31T12:10:37;3.60;;;3.30;;
26562;SDS011;14217;50.986;5.826;2022-10-31T12:15:55;3.05;;;2.53;;
26562;SDS011;14217;50.986;5.826;2022-10-31T12:37:43;3.97;;;3.67;;
26562;SDS011;14217;50.986;5.826;2022-10-31T13:04:48;3.55;;;3.25;;
26562;SDS011;14217;50.986;5.826;2022-10-31T13:10:14;3.17;;;2.88;;
26562;SDS011;14217;50.986;5.826;2022-10-31T13:15:22;3.70;;;2.75;;
26562;SDS011;14217;50.986;5.826;2022-10-31T13:25:44;3.60;;;2.92;;
26562;SDS011;14217;50.986;5.826;2022-10-31T13:30:51;2.42;;;2.22;;
26562;SDS011;14217;50.986;5.826;2022-10-31T13:36:03;4.28;;;2.22;;
26562;SDS011;14217;50.986;5.826;2022-10-31T13:41:13;3.22;;;2.60;;
26562;SDS011;14217;50.986;5.826;2022-10-31T13:46:37;4.47;;;3.08;;
26562;SDS011;14217;50.986;5.826;2022-10-31T13:51:41;6.03;;;3.22;;
26562;SDS011;14217;50.986;5.826;2022-10-31T13:56:43;3.75;;;2.78;;
26562;SDS011;14217;50.986;5.826;2022-10-31T14:01:52;3.83;;;2.30;;
26562;SDS011;14217;50.986;5.826;2022-10-31T14:07:07;3.97;;;2.35;;
26562;SDS011;14217;50.986;5.826;2022-10-31T14:12:14;2.40;;;2.05;;
26562;SDS011;14217;50.986;5.826;2022-10-31T14:17:25;6.50;;;3.15;;
26562;SDS011;14217;50.986;5.826;2022-10-31T14:22:31;4.13;;;2.58;;
26562;SDS011;14217;50.986;5.826;2022-10-31T14:27:44;4.00;;;2.00;;
26562;SDS011;14217;50.986;5.826;2022-10-31T14:33:30;4.40;;;2.58;;
26562;SDS011;14217;50.986;5.826;2022-10-31T14:38:28;3.35;;;2.25;;
26562;SDS011;14217;50.986;5.826;2022-10-31T14:49:49;2.78;;;2.20;;
26562;SDS011;14217;50.986;5.826;2022-10-31T14:54:47;9.10;;;2.92;;
26562;SDS011;14217;50.986;5.826;2022-10-31T14:59:54;2.97;;;2.28;;
26562;SDS011;14217;50.986;5.826;2022-10-31T15:05:07;2.75;;;2.30;;
26562;SDS011;14217;50.986;5.826;2022-10-31T15:10:21;3.75;;;2.20;;
26562;SDS011;14217;50.986;5.826;2022-10-31T15:15:26;5.78;;;3.33;;
26562;SDS011;14217;50.986;5.826;2022-10-31T15:20:29;4.38;;;1.92;;
26562;SDS011;14217;50.986;5.826;2022-10-31T15:25:35;9.77;;;3.03;;
26562;SDS011;14217;50.986;5.826;2022-10-31T15:30:37;5.05;;;2.97;;
26562;SDS011;14217;50.986;5.826;2022-10-31T15:35:39;3.33;;;2.17;;
26562;SDS011;14217;50.986;5.826;2022-10-31T15:40:41;3.65;;;1.95;;
26562;SDS011;14217;50.986;5.826;2022-10-31T15:45:55;10.38;;;2.28;;
26562;SDS011;14217;50.986;5.826;2022-10-31T15:50:57;4.07;;;2.40;;
26562;SDS011;14217;50.986;5.826;2022-10-31T15:56:00;7.72;;;3.63;;
26562;SDS011;14217;50.986;5.826;2022-10-31T16:01:24;11.27;;;2.72;;
26562;SDS011;14217;50.986;5.826;2022-10-31T16:06:34;8.43;;;2.28;;
26562;SDS011;14217;50.986;5.826;2022-10-31T16:11:36;4.28;;;2.30;;
26562;SDS011;14217;50.986;5.826;2022-10-31T16:16:44;8.75;;;3.28;;
26562;SDS011;14217;50.986;5.826;2022-10-31T16:22:01;3.75;;;2.80;;
26562;SDS011;14217;50.986;5.826;2022-10-31T16:27:22;7.40;;;2.80;;
26562;SDS011;14217;50.986;5.826;2022-10-31T16:32:31;8.75;;;2.90;;
26562;SDS011;14217;50.986;5.826;2022-10-31T16:37:38;3.08;;;2.00;;
26562;SDS011;14217;50.986;5.826;2022-10-31T16:42:41;5.13;;;2.03;;
26562;SDS011;14217;50.986;5.826;2022-10-31T16:47:44;4.15;;;2.30;;
26562;SDS011;14217;50.986;5.826;2022-10-31T16:52:46;2.72;;;2.05;;
26562;SDS011;14217;50.986;5.826;2022-10-31T16:58:09;5.55;;;2.08;;
26562;SDS011;14217;50.986;5.826;2022-10-31T17:03:17;3.45;;;1.70;;
26562;SDS011;14217;50.986;5.826;2022-10-31T17:08:19;7.85;;;2.58;;
26562;SDS011;14217;50.986;5.826;2022-10-31T17:13:21;4.13;;;2.17;;
26562;SDS011;14217;50.986;5.826;2022-10-31T17:18:26;1.90;;;1.65;;
26562;SDS011;14217;50.986;5.826;2022-10-31T17:23:28;2.95;;;1.90;;
26562;SDS011;14217;50.986;5.826;2022-10-31T17:28:30;1.90;;;1.55;;
26562;SDS011;14217;50.986;5.826;2022-10-31T17:33:32;5.43;;;2.35;;
26562;SDS011;14217;50.986;5.826;2022-10-31T17:38:36;3.58;;;2.13;;
26562;SDS011;14217;50.986;5.826;2022-10-31T17:43:38;2.90;;;1.67;;
26562;SDS011;14217;50.986;5.826;2022-10-31T17:48:40;2.28;;;1.75;;
26562;SDS011;14217;50.986;5.826;2022-10-31T17:53:42;4.10;;;1.65;;
26562;SDS011;14217;50.986;5.826;2022-10-31T17:58:44;2.70;;;2.03;;
26562;SDS011;14217;50.986;5.826;2022-10-31T18:03:45;4.32;;;1.98;;
26562;SDS011;14217;50.986;5.826;2022-10-31T18:08:47;2.30;;;1.83;;
26562;SDS011;14217;50.986;5.826;2022-10-31T18:13:56;1.80;;;1.70;;
26562;SDS011;14217;50.986;5.826;2022-10-31T18:18:58;3.30;;;1.98;;
26562;SDS011;14217;50.986;5.826;2022-10-31T18:24:02;3.40;;;2.38;;
26562;SDS011;14217;50.986;5.826;2022-10-31T18:29:04;1.92;;;1.70;;
26562;SDS011;14217;50.986;5.826;2022-10-31T18:34:06;2.55;;;1.50;;
26562;SDS011;14217;50.986;5.826;2022-10-31T18:39:09;3.05;;;1.48;;
26562;SDS011;14217;50.986;5.826;2022-10-31T18:44:14;1.65;;;1.52;;
26562;SDS011;14217;50.986;5.826;2022-10-31T18:49:16;1.60;;;1.50;;
26562;SDS011;14217;50.986;5.826;2022-10-31T18:54:22;2.92;;;1.75;;
26562;SDS011;14217;50.986;5.826;2022-10-31T18:59:24;3.70;;;1.98;;
26562;SDS011;14217;50.986;5.826;2022-10-31T19:04:26;1.48;;;1.30;;
26562;SDS011;14217;50.986;5.826;2022-10-31T19:09:28;2.97;;;1.50;;
26562;SDS011;14217;50.986;5.826;2022-10-31T19:14:31;2.13;;;1.58;;
26562;SDS011;14217;50.986;5.826;2022-10-31T19:19:33;1.42;;;1.33;;
26562;SDS011;14217;50.986;5.826;2022-10-31T19:24:35;1.80;;;1.42;;
26562;SDS011;14217;50.986;5.826;2022-10-31T19:29:37;2.22;;;1.73;;
26562;SDS011;14217;50.986;5.826;2022-10-31T19:34:40;1.77;;;1.25;;
26562;SDS011;14217;50.986;5.826;2022-10-31T19:39:42;2.00;;;1.80;;
26562;SDS011;14217;50.986;5.826;2022-10-31T19:44:44;1.60;;;1.50;;
26562;SDS011;14217;50.986;5.826;2022-10-31T19:49:46;2.33;;;1.35;;
26562;SDS011;14217;50.986;5.826;2022-10-31T19:54:48;2.30;;;1.73;;
26562;SDS011;14217;50.986;5.826;2022-10-31T19:59:50;1.80;;;1.55;;
26562;SDS011;14217;50.986;5.826;2022-10-31T20:04:52;2.38;;;1.20;;
26562;SDS011;14217;50.986;5.826;2022-10-31T20:09:54;1.67;;;1.17;;
26562;SDS011;14217;50.986;5.826;2022-10-31T20:14:56;2.30;;;1.48;;
26562;SDS011;14217;50.986;5.826;2022-10-31T20:19:58;1.48;;;1.25;;
26562;SDS011;14217;50.986;5.826;2022-10-31T20:25:01;2.95;;;1.50;;
26562;SDS011;14217;50.986;5.826;2022-10-31T20:30:04;1.33;;;1.02;;
26562;SDS011;14217;50.986;5.826;2022-10-31T20:35:07;1.20;;;1.10;;
26562;SDS011;14217;50.986;5.826;2022-10-31T20:40:09;2.45;;;1.17;;
26562;SDS011;14217;50.986;5.826;2022-10-31T20:45:11;2.55;;;1.23;;
26562;SDS011;14217;50.986;5.826;2022-10-31T20:50:13;1.38;;;1.23;;
26562;SDS011;14217;50.986;5.826;2022-10-31T20:55:15;1.52;;;1.30;;
26562;SDS011;14217;50.986;5.826;2022-10-31T21:00:17;2.22;;;1.23;;
26562;SDS011;14217;50.986;5.826;2022-10-31T21:05:19;1.92;;;1.25;;
26562;SDS011;14217;50.986;5.826;2022-10-31T21:10:21;1.10;;;1.00;;
26562;SDS011;14217;50.986;5.826;2022-10-31T21:15:23;3.40;;;1.05;;
26562;SDS011;14217;50.986;5.826;2022-10-31T21:20:25;2.58;;;1.65;;
26562;SDS011;14217;50.986;5.826;2022-10-31T21:25:27;5.55;;;1.58;;
26562;SDS011;14217;50.986;5.826;2022-10-31T21:30:29;1.98;;;1.00;;
26562;SDS011;14217;50.986;5.826;2022-10-31T21:35:31;1.55;;;1.20;;
26562;SDS011;14217;50.986;5.826;2022-10-31T21:40:32;2.22;;;1.20;;
26562;SDS011;14217;50.986;5.826;2022-10-31T21:45:34;1.73;;;1.10;;
26562;SDS011;14217;50.986;5.826;2022-10-31T21:50:36;0.98;;;0.98;;
26562;SDS011;14217;50.986;5.826;2022-10-31T21:55:38;11.05;;;1.55;;
26562;SDS011;14217;50.986;5.826;2022-10-31T22:00:40;1.13;;;1.02;;
26562;SDS011;14217;50.986;5.826;2022-10-31T22:05:42;2.75;;;1.33;;
26562;SDS011;14217;50.986;5.826;2022-10-31T22:10:44;6.57;;;1.08;;
26562;SDS011;14217;50.986;5.826;2022-10-31T22:15:46;4.60;;;1.00;;
26562;SDS011;14217;50.986;5.826;2022-10-31T22:20:47;2.13;;;1.33;;
26562;SDS011;14217;50.986;5.826;2022-10-31T22:25:49;4.88;;;1.42;;
26562;SDS011;14217;50.986;5.826;2022-10-31T22:30:51;2.45;;;1.10;;
26562;SDS011;14217;50.986;5.826;2022-10-31T22:35:53;2.33;;;0.88;;
26562;SDS011;14217;50.986;5.826;2022-10-31T22:40:56;2.40;;;1.38;;
26562;SDS011;14217;50.986;5.826;2022-10-31T22:45:59;2.03;;;1.38;;
26562;SDS011;14217;50.986;5.826;2022-10-31T22:51:08;1.98;;;1.23;;
26562;SDS011;14217;50.986;5.826;2022-10-31T22:56:15;6.97;;;1.20;;
26562;SDS011;14217;50.986;5.826;2022-10-31T23:01:20;3.28;;;1.55;;
26562;SDS011;14217;50.986;5.826;2022-10-31T23:06:25;3.72;;;1.45;;
26562;SDS011;14217;50.986;5.826;2022-10-31T23:11:31;3.17;;;1.48;;
26562;SDS011;14217;50.986;5.826;2022-10-31T23:16:51;1.48;;;1.20;;
26562;SDS011;14217;50.986;5.826;2022-10-31T23:21:57;2.22;;;1.15;;
26562;SDS011;14217;50.986;5.826;2022-10-31T23:27:02;2.05;;;0.90;;
26562;SDS011;14217;50.986;5.826;2022-10-31T23:32:13;1.98;;;1.40;;
26562;SDS011;14217;50.986;5.826;2022-10-31T23:37:31;2.35;;;1.17;;
26562;SDS011;14217;50.986;5.826;2022-10-31T23:42:34;1.15;;;0.73;;
26562;SDS011;14217;50.986;5.826;2022-10-31T23:47:36;1.58;;;1.17;;
26562;SDS011;14217;50.986;5.826;2022-10-31T23:52:43;2.30;;;1.33;;
26562;SDS011;14217;50.986;5.826;2022-10-31T23:57:45;0.98;;;0.88;;
